Terminal Aerodrome Forecast
Issued by NWS

Home | Current Version | Previous Version | Text Only | Print | Product List | Glossary On
Versions: 1 2 3 4 5 6 7 8 9 10 11 12 13 14 15 16 17 18 19 20 21 22 23 24 25
105
FTUS43 KLSX 221129
TAFSUS
TAF
KSUS 221129Z 2212/2312 00000KT 1/4SM FG VV002
     FM221400 VRB03KT 1/2SM FG BKN003
     FM221600 VRB03KT 2SM BR BKN010
     FM221800 21010KT P6SM SCT060
     FM230900 00000KT P6SM SCT150=

USA.gov is the U.S. government's official web portal to all federal, state and local government web resources and services.